Time;durP1;ratioP1;P1;durP2;ratioP2;P2;SDS_P1;SDS_P2;PMS_P1;PMS_P2;Temp;Humidity;BMP_temperature;BMP_pressure;BME280_temperature;BME280_humidity;BME280_pressure;Samples;Min_cycle;Max_cycle;Signal;HPM_P1;HPM_P2
2022/01/15 00:01:25;;;;;;;6.35;4.35;;;;;;;3.82;63.08;95500.81;4990490;28;20113;-73
2022/01/15 00:03:50;;;;;;;5.68;3.55;;;;;;;3.73;63.59;95503.59;4991648;28;20548;-73
2022/01/15 00:06:16;;;;;;;8.93;5.55;;;;;;;3.80;63.47;95512.75;4991544;28;20540;-69
2022/01/15 00:08:41;;;;;;;7.95;5.10;;;;;;;3.80;63.63;95506.81;4991121;28;20041;-71
2022/01/15 00:11:07;;;;;;;7.80;5.07;;;;;;;3.84;63.23;95501.59;4990076;28;20512;-72
2022/01/15 00:13:32;;;;;;;6.85;3.90;;;;;;;3.83;63.62;95515.22;4991334;28;20019;-71
2022/01/15 00:16:10;;;;;;;8.93;5.00;;;;;;;3.85;63.92;95504.97;4991160;28;20096;-69
2022/01/15 00:18:58;;;;;;;8.93;5.55;;;;;;;3.55;64.37;95460.78;4991087;28;20046;-69
2022/01/15 00:21:23;;;;;;;7.65;3.95;;;;;;;3.60;64.46;95474.22;4990675;28;20034;-70
2022/01/15 00:23:49;;;;;;;7.97;4.45;;;;;;;3.57;64.48;95472.59;4991070;28;20030;-71
2022/01/15 00:26:15;;;;;;;8.90;5.00;;;;;;;3.73;64.82;95495.94;4990323;28;20034;-75
2022/01/15 00:28:40;;;;;;;9.27;4.35;;;;;;;3.54;64.52;95495.63;4990600;28;20026;-74
2022/01/15 00:31:06;;;;;;;7.85;4.65;;;;;;;3.06;65.00;95407.72;4991133;28;20134;-74
2022/01/15 00:33:31;;;;;;;8.85;4.70;;;;;;;3.71;65.05;95510.47;5021853;28;20046;-70
2022/01/15 00:35:58;;;;;;;9.10;4.50;;;;;;;3.73;65.13;95515.53;4991071;28;20030;-73
2022/01/15 00:38:23;;;;;;;7.63;3.55;;;;;;;3.72;65.42;95514.66;4990943;28;20065;-71
2022/01/15 00:40:48;;;;;;;9.70;5.65;;;;;;;3.76;65.36;95518.81;4991026;28;20030;-73
2022/01/15 00:43:14;;;;;;;10.90;5.35;;;;;;;3.82;64.77;95518.66;4990871;28;20065;-72
2022/01/15 00:45:39;;;;;;;9.23;5.97;;;;;;;3.43;65.05;95472.97;5004801;28;20584;-74
2022/01/15 00:48:05;;;;;;;10.55;5.93;;;;;;;3.81;64.49;95531.47;4990967;28;20044;-73
2022/01/15 00:50:31;;;;;;;10.68;6.38;;;;;;;3.77;65.26;95512.84;4991021;28;20524;-72
2022/01/15 00:52:56;;;;;;;8.82;4.43;;;;;;;3.83;64.96;95522.84;4990738;28;20524;-74
2022/01/15 00:55:22;;;;;;;10.98;3.90;;;;;;;3.82;65.46;95518.66;4991165;28;20513;-67
2022/01/15 00:57:47;;;;;;;6.40;4.60;;;;;;;3.53;65.02;95486.31;4989833;28;20089;-72
2022/01/15 01:00:18;;;;;;;8.85;4.78;;;;;;;3.82;65.28;95516.09;4990464;28;20117;-66
2022/01/15 01:02:44;;;;;;;7.15;4.68;;;;;;;3.72;65.39;95498.53;4990541;28;20432;-68
2022/01/15 01:05:11;;;;;;;8.60;4.90;;;;;;;3.75;65.71;95488.25;4990538;28;20034;-72
2022/01/15 01:07:37;;;;;;;7.38;4.50;;;;;;;3.77;65.78;95501.78;4990280;28;20034;-70
2022/01/15 01:10:23;;;;;;;6.80;4.20;;;;;;;3.65;65.38;95500.44;4989874;28;20030;-70
2022/01/15 01:21:17;;;;;;;8.85;5.45;;;;;;;3.56;66.06;95515.97;4989990;28;20036;-73
2022/01/15 01:23:41;;;;;;;7.38;4.75;;;;;;;3.34;66.33;95470.69;4990079;28;20030;-70
2022/01/15 01:26:12;;;;;;;9.00;5.20;;;;;;;3.17;65.90;95449.94;4988780;28;20041;-69
2022/01/15 01:28:45;;;;;;;8.73;5.03;;;;;;;3.60;65.85;95517.59;4989813;28;20023;-71
2022/01/15 01:31:20;;;;;;;9.02;5.35;;;;;;;3.38;65.59;95479.06;4989967;28;20057;-70
2022/01/15 01:33:50;;;;;;;9.40;4.97;;;;;;;3.48;65.93;95501.75;4989019;28;20023;-73
2022/01/15 01:36:37;;;;;;;7.75;5.15;;;;;;;3.61;65.45;95511.63;4989950;28;20512;-74
2022/01/15 01:39:10;;;;;;;10.52;6.25;;;;;;;2.99;65.74;95410.50;4989285;28;20032;-71
2022/01/15 01:41:37;;;;;;;8.75;5.03;;;;;;;3.40;65.50;95464.59;4989693;28;20433;-71
2022/01/15 01:44:04;;;;;;;8.88;4.72;;;;;;;3.21;65.55;95443.84;4989544;28;20041;-73
2022/01/15 01:46:51;;;;;;;9.52;4.93;;;;;;;3.47;65.63;95476.28;4988895;28;20038;-75
2022/01/15 01:49:19;;;;;;;7.32;3.72;;;;;;;3.52;65.38;95473.59;4989655;28;20056;-72
2022/01/15 01:51:45;;;;;;;6.40;3.33;;;;;;;3.60;65.19;95485.25;4989442;28;20473;-75
2022/01/15 01:54:16;;;;;;;7.65;4.72;;;;;;;3.29;64.91;95439.38;4989708;28;20485;-73
2022/01/15 01:56:41;;;;;;;7.15;3.92;;;;;;;3.16;65.30;95422.75;4988756;28;20615;-69
2022/01/15 01:59:08;;;;;;;9.77;5.07;;;;;;;3.57;64.67;95500.63;4989319;28;20027;-72
2022/01/15 02:01:33;;;;;;;7.50;4.22;;;;;;;3.48;63.01;95466.03;4989244;28;20030;-72
2022/01/15 02:03:59;;;;;;;9.52;6.03;;;;;;;3.54;62.68;95464.19;4989367;28;20037;-73
2022/01/15 02:06:25;;;;;;;7.80;4.63;;;;;;;3.51;62.47;95444.72;4989418;28;20038;-72
2022/01/15 02:08:51;;;;;;;9.35;5.18;;;;;;;3.49;62.61;95454.13;4988975;28;20156;-73
2022/01/15 02:11:17;;;;;;;9.23;5.28;;;;;;;3.66;62.52;95495.28;4989289;28;20041;-74
2022/01/15 02:13:45;;;;;;;9.90;5.47;;;;;;;3.73;62.05;95490.84;4989428;28;20025;-74
2022/01/15 02:16:12;;;;;;;7.65;4.88;;;;;;;3.76;61.73;95488.22;4989337;28;20078;-73
2022/01/15 02:18:38;;;;;;;11.38;5.32;;;;;;;3.69;62.13;95491.81;4989302;28;20564;-71
2022/01/15 02:23:36;;;;;;;10.25;5.65;;;;;;;3.55;62.75;95489.66;4989229;28;20128;-73
2022/01/15 02:26:07;;;;;;;9.85;5.65;;;;;;;3.35;63.09;95461.34;4988818;28;20041;-73
2022/01/15 02:28:39;;;;;;;9.93;6.10;;;;;;;3.32;63.48;95459.69;4989445;28;20030;-74
2022/01/15 02:31:07;;;;;;;9.10;4.93;;;;;;;3.36;63.69;95463.00;4989103;28;20035;-74
2022/01/15 02:33:33;;;;;;;9.73;5.32;;;;;;;3.47;63.77;95486.47;4988573;28;20022;-74
2022/01/15 02:36:00;;;;;;;8.02;4.95;;;;;;;3.27;63.42;95443.69;4989068;28;20030;-74
2022/01/15 02:38:26;;;;;;;7.18;3.90;;;;;;;3.28;63.09;95443.66;4988846;28;20434;-71
2022/01/15 02:40:52;;;;;;;8.90;5.35;;;;;;;3.57;63.03;95482.78;4988745;28;20473;-73
2022/01/15 02:43:21;;;;;;;8.52;4.40;;;;;;;3.31;62.82;95441.03;4989071;28;20112;-73
2022/01/15 02:45:54;;;;;;;8.35;4.85;;;;;;;3.73;61.96;95510.44;4988516;28;20062;-74
2022/01/15 02:48:26;;;;;;;7.78;3.72;;;;;;;3.72;62.19;95508.75;4988997;28;20065;-75
2022/01/15 02:50:52;;;;;;;6.63;3.97;;;;;;;3.64;62.37;95502.16;4991040;28;20069;-74
2022/01/15 02:53:18;;;;;;;9.55;5.13;;;;;;;3.58;62.21;95484.47;4992777;28;20034;-71
2022/01/15 02:55:49;;;;;;;8.00;4.80;;;;;;;3.65;62.02;95497.88;4993119;28;20405;-74
2022/01/15 02:58:16;;;;;;;7.18;3.92;;;;;;;3.62;62.20;95503.06;4992387;28;20433;-73
2022/01/15 03:00:42;;;;;;;7.60;4.10;;;;;;;3.55;61.71;95489.66;4992572;28;20041;-72
2022/01/15 03:03:08;;;;;;;10.32;5.45;;;;;;;3.49;61.92;95485.56;4992794;28;20034;-75
2022/01/15 03:05:34;;;;;;;8.88;4.75;;;;;;;3.59;61.82;95500.59;4992707;28;20045;-73
2022/01/15 03:07:59;;;;;;;9.68;5.70;;;;;;;3.35;61.67;95464.72;4992403;28;20041;-74
2022/01/15 03:10:25;;;;;;;10.25;5.50;;;;;;;3.58;61.49;95507.41;4991996;28;20022;-72
2022/01/15 03:12:54;;;;;;;9.88;5.68;;;;;;;3.62;61.39;95513.25;4990867;28;20038;-72
2022/01/15 03:15:20;;;;;;;12.18;6.50;;;;;;;3.53;60.79;95524.56;4992597;28;20594;-74
2022/01/15 03:17:47;;;;;;;8.93;6.20;;;;;;;3.27;60.49;95464.09;5007353;28;20031;-72
2022/01/15 03:20:15;;;;;;;9.40;4.78;;;;;;;3.35;60.49;95485.09;4992145;28;20026;-66
2022/01/15 03:22:41;;;;;;;9.73;4.88;;;;;;;3.45;60.38;95506.09;4991949;28;20045;-67
2022/01/15 03:25:08;;;;;;;10.07;5.65;;;;;;;3.43;60.14;95501.03;4992395;28;20125;-67
2022/01/15 03:27:33;;;;;;;10.55;5.88;;;;;;;3.42;60.16;95499.34;4992439;28;20124;-66
2022/01/15 03:29:59;;;;;;;10.43;6.40;;;;;;;2.94;59.64;95420.81;4992117;28;20688;-71
2022/01/15 03:32:24;;;;;;;10.48;5.65;;;;;;;3.12;59.93;95466.16;4991817;28;20030;-66
2022/01/15 03:34:49;;;;;;;10.93;6.22;;;;;;;3.36;60.14;95512.28;4992188;28;20030;-66
2022/01/15 03:37:16;;;;;;;9.98;6.10;;;;;;;2.61;59.91;95399.56;4991966;28;20041;-67
2022/01/15 03:39:41;;;;;;;9.88;6.50;;;;;;;2.88;60.18;95454.91;4992077;28;20046;-71
2022/01/15 03:42:11;;;;;;;10.55;5.25;;;;;;;3.23;60.27;95528.75;4992083;28;20053;-72
2022/01/15 03:44:42;;;;;;;11.23;5.80;;;;;;;3.22;60.45;95524.56;4991507;28;20037;-69
2022/01/15 03:47:08;;;;;;;12.63;6.60;;;;;;;3.13;60.86;95520.50;4991751;28;20564;-72
2022/01/15 03:49:34;;;;;;;13.43;7.75;;;;;;;2.86;60.81;95483.84;4991876;28;20579;-73
2022/01/15 03:52:00;;;;;;;9.00;5.40;;;;;;;3.17;60.63;95522.13;4991565;28;20030;-69
2022/01/15 03:54:25;;;;;;;12.05;6.85;;;;;;;3.20;60.74;95524.59;4991617;28;20034;-71
2022/01/15 03:56:51;;;;;;;9.15;5.72;;;;;;;2.70;60.92;95470.66;4990917;28;20046;-67
2022/01/15 03:59:17;;;;;;;10.18;6.80;;;;;;;2.93;60.92;95503.19;4991631;28;20121;-74
2022/01/15 04:01:42;;;;;;;11.07;6.82;;;;;;;3.27;60.90;95538.84;4991239;28;20038;-72
2022/01/15 04:04:08;;;;;;;9.57;5.50;;;;;;;3.12;60.79;95494.19;4991652;28;20030;-72
2022/01/15 04:06:33;;;;;;;10.30;6.22;;;;;;;3.10;60.94;95510.41;4991515;28;20093;-71
2022/01/15 04:08:59;;;;;;;9.43;5.75;;;;;;;3.30;60.96;95545.56;5004468;28;20045;-74
2022/01/15 04:11:24;;;;;;;13.55;6.90;;;;;;;3.35;61.27;95556.50;5011217;28;20045;-71
2022/01/15 04:13:50;;;;;;;11.43;6.85;;;;;;;2.12;61.13;95369.41;5010993;28;20056;-72
2022/01/15 04:16:15;;;;;;;10.95;6.38;;;;;;;3.31;61.46;95565.06;5010933;28;20051;-72
2022/01/15 04:18:41;;;;;;;10.07;5.93;;;;;;;3.19;61.48;95545.00;5011236;28;20084;-72
2022/01/15 04:21:10;;;;;;;11.40;6.72;;;;;;;3.30;61.57;95565.97;5010282;28;20452;-71
2022/01/15 04:23:37;;;;;;;9.98;6.85;;;;;;;3.10;61.43;95541.81;5010875;28;20057;-73
2022/01/15 04:26:03;;;;;;;12.38;8.82;;;;;;;3.33;61.79;95582.88;5010937;28;20028;-71
2022/01/15 04:28:31;;;;;;;10.18;6.90;;;;;;;3.20;61.20;95567.06;5010797;28;20051;-74
2022/01/15 04:31:04;;;;;;;14.88;8.30;;;;;;;3.22;61.63;95568.69;5010693;28;20424;-72
2022/01/15 04:33:30;;;;;;;12.75;7.60;;;;;;;3.23;61.76;95579.72;5010326;28;20034;-73
2022/01/15 04:35:55;;;;;;;12.95;8.23;;;;;;;2.97;61.96;95558.31;5010638;28;20030;-72
2022/01/15 04:38:20;;;;;;;12.25;7.40;;;;;;;2.94;62.25;95571.94;5010430;28;20080;-73
2022/01/15 04:40:46;;;;;;;12.90;8.02;;;;;;;3.07;62.10;95576.75;5010665;28;20037;-72
2022/01/15 04:43:11;;;;;;;13.82;7.85;;;;;;;3.16;62.21;95585.88;5010565;28;20057;-74
2022/01/15 04:45:37;;;;;;;10.63;5.88;;;;;;;3.14;62.05;95601.19;5010265;28;20037;-74
2022/01/15 04:48:02;;;;;;;14.82;8.80;;;;;;;2.91;62.35;95559.25;5010464;28;20068;-72
2022/01/15 04:50:28;;;;;;;13.77;7.30;;;;;;;2.92;61.97;95560.13;5010327;28;20468;-73
2022/01/15 04:52:54;;;;;;;11.73;8.45;;;;;;;3.05;62.13;95584.44;5010110;28;20048;-70
2022/01/15 04:55:19;;;;;;;11.80;7.63;;;;;;;3.09;62.46;95600.47;5010205;28;20095;-70
2022/01/15 04:57:45;;;;;;;13.23;8.10;;;;;;;3.05;63.02;95589.53;5009611;28;20045;-76
2022/01/15 05:00:13;;;;;;;16.88;7.30;;;;;;;3.03;62.92;95586.16;5009864;28;20037;-72
2022/01/15 05:02:39;;;;;;;14.68;7.75;;;;;;;2.97;63.47;95580.38;5010307;28;20038;-75
2022/01/15 05:05:05;;;;;;;15.68;8.18;;;;;;;2.84;62.81;95562.03;5010006;28;20033;-74
2022/01/15 05:07:31;;;;;;;13.52;7.35;;;;;;;3.06;63.55;95610.72;5009987;28;20026;-70
2022/01/15 05:09:56;;;;;;;13.70;8.73;;;;;;;2.94;63.38;95584.69;5009305;28;20075;-71
2022/01/15 05:12:31;;;;;;;11.52;7.28;;;;;;;3.00;63.81;95604.09;5009713;28;20034;-73
2022/01/15 05:14:57;;;;;;;19.17;10.20;;;;;;;2.79;64.34;95576.56;5009829;28;20034;-69
2022/01/15 05:17:23;;;;;;;15.30;10.05;;;;;;;2.64;64.44;95582.84;5010053;28;20033;-73
2022/01/15 05:19:48;;;;;;;13.50;7.80;;;;;;;2.57;64.79;95561.78;5009809;28;20030;-72
2022/01/15 05:22:14;;;;;;;13.60;7.82;;;;;;;3.00;64.67;95611.72;5009386;28;20104;-72
2022/01/15 05:24:39;;;;;;;16.52;8.65;;;;;;;2.97;64.75;95622.00;5009878;28;20097;-73
2022/01/15 05:27:05;;;;;;;15.88;8.93;;;;;;;2.98;64.97;95638.09;5009839;28;20045;-73
2022/01/15 05:29:30;;;;;;;14.35;9.13;;;;;;;2.86;64.92;95631.59;5009617;28;20041;-72
2022/01/15 05:31:56;;;;;;;16.17;10.45;;;;;;;2.65;65.28;95618.47;5009852;28;20030;-71
2022/01/15 05:34:21;;;;;;;16.15;9.55;;;;;;;2.94;65.08;95652.63;5009331;28;20126;-67
2022/01/15 05:36:47;;;;;;;13.15;8.48;;;;;;;2.70;64.98;95611.53;5009617;28;20495;-66
2022/01/15 05:39:12;;;;;;;14.52;8.45;;;;;;;2.66;64.98;95612.50;5009507;28;20074;-67
2022/01/15 05:41:38;;;;;;;14.82;8.73;;;;;;;2.94;64.87;95652.63;5009556;28;20045;-68
2022/01/15 05:44:04;;;;;;;16.75;8.70;;;;;;;2.87;65.20;95651.94;5009474;28;20026;-67
2022/01/15 05:46:30;;;;;;;20.15;10.40;;;;;;;2.63;65.28;95625.28;5009179;28;20113;-67
2022/01/15 05:48:57;;;;;;;15.20;8.80;;;;;;;2.78;65.63;95656.41;5009441;28;20099;-67
2022/01/15 05:51:22;;;;;;;14.52;8.63;;;;;;;2.78;65.11;95657.22;5005895;28;20076;-68
2022/01/15 05:53:48;;;;;;;14.07;8.60;;;;;;;2.88;65.25;95660.41;5009225;28;20057;-74
2022/01/15 05:56:14;;;;;;;14.30;9.02;;;;;;;2.41;65.51;95591.84;5008833;28;20440;-71
2022/01/15 05:58:39;;;;;;;13.80;8.32;;;;;;;2.83;65.46;95669.88;5008725;28;20100;-71
2022/01/15 06:01:05;;;;;;;16.60;9.63;;;;;;;2.79;66.19;95668.25;5009401;28;20065;-68
2022/01/15 06:03:30;;;;;;;18.15;10.88;;;;;;;2.73;66.12;95675.16;5009371;28;20409;-74
2022/01/15 06:05:56;;;;;;;18.05;11.65;;;;;;;2.55;66.11;95650.91;5009000;28;20405;-74
2022/01/15 06:08:22;;;;;;;18.25;9.60;;;;;;;2.73;66.38;95680.25;5008790;28;20144;-75
2022/01/15 06:10:47;;;;;;;14.93;9.80;;;;;;;2.29;66.75;95627.72;5008608;28;20480;-74
2022/01/15 06:13:12;;;;;;;19.35;11.02;;;;;;;2.64;66.60;95685.56;5008750;28;20084;-72
2022/01/15 06:15:38;;;;;;;17.17;10.60;;;;;;;2.66;66.92;95690.63;5009068;28;20030;-72
2022/01/15 06:18:03;;;;;;;16.10;9.30;;;;;;;2.48;66.91;95674.00;5008858;28;20057;-72
2022/01/15 06:20:29;;;;;;;16.08;11.35;;;;;;;2.41;67.29;95670.75;5008518;28;20478;-73
2022/01/15 06:22:54;;;;;;;15.85;8.45;;;;;;;2.54;67.58;95704.41;5008970;28;20018;-73
2022/01/15 06:25:20;;;;;;;21.77;12.95;;;;;;;2.54;67.66;95710.38;5008630;28;20449;-73
2022/01/15 06:27:45;;;;;;;18.65;10.10;;;;;;;2.48;67.76;95702.84;5008908;28;20034;-73
2022/01/15 06:30:11;;;;;;;15.77;10.55;;;;;;;2.40;67.91;95697.06;5008582;28;20084;-72
2022/01/15 06:32:37;;;;;;;22.95;11.75;;;;;;;2.42;68.46;95714.88;5008419;28;20428;-74
2022/01/15 06:35:08;;;;;;;16.13;9.88;;;;;;;2.39;68.24;95719.16;5008691;28;20030;-77
2022/01/15 06:37:33;;;;;;;19.08;12.40;;;;;;;2.39;68.23;95724.25;5008723;28;20041;-73
2022/01/15 06:39:59;;;;;;;17.83;10.10;;;;;;;2.31;68.31;95710.81;5008149;28;20473;-71
2022/01/15 06:42:24;;;;;;;19.27;11.57;;;;;;;2.49;67.76;95729.13;5008224;28;20032;-71
2022/01/15 06:44:50;;;;;;;24.20;11.73;;;;;;;2.52;67.92;95727.34;5008508;28;20398;-73
2022/01/15 06:47:15;;;;;;;17.52;10.65;;;;;;;2.51;67.76;95720.59;5008384;28;20148;-73
2022/01/15 06:49:41;;;;;;;18.60;10.25;;;;;;;2.53;67.74;95733.31;5008366;28;20030;-69
2022/01/15 06:52:06;;;;;;;15.68;8.43;;;;;;;2.29;67.92;95714.25;5008440;28;20040;-71
2022/01/15 06:54:32;;;;;;;17.98;11.35;;;;;;;2.56;68.01;95729.00;5008546;28;20030;-73
2022/01/15 06:56:57;;;;;;;19.52;10.02;;;;;;;2.61;67.58;95736.53;5007670;28;20050;-73
2022/01/15 06:59:23;;;;;;;17.52;10.60;;;;;;;2.61;67.71;95728.91;5008541;28;20037;-74
2022/01/15 07:01:48;;;;;;;15.63;11.02;;;;;;;2.48;67.08;95684.19;5008339;28;20057;-71
2022/01/15 07:04:14;;;;;;;21.25;10.48;;;;;;;2.81;67.26;95728.47;5008408;28;20105;-73
2022/01/15 07:06:39;;;;;;;18.70;11.48;;;;;;;2.61;66.70;95700.88;5008359;28;20485;-72
2022/01/15 07:09:05;;;;;;;17.80;11.68;;;;;;;2.90;66.82;95745.28;5008019;28;20056;-74
2022/01/15 07:11:30;;;;;;;15.25;8.55;;;;;;;2.56;67.07;95715.44;5008342;28;20072;-76
2022/01/15 07:13:56;;;;;;;14.95;10.32;;;;;;;2.71;66.91;95727.00;5008313;28;20026;-72
2022/01/15 07:16:21;;;;;;;18.58;11.07;;;;;;;2.90;66.57;95756.31;5008211;28;20507;-71
2022/01/15 07:18:47;;;;;;;19.83;10.15;;;;;;;2.84;66.80;95753.06;5008561;28;20473;-73
2022/01/15 07:21:12;;;;;;;15.60;10.57;;;;;;;2.89;66.62;95758.91;5007724;28;20459;-73
2022/01/15 07:23:38;;;;;;;19.92;10.85;;;;;;;2.94;66.63;95768.09;5008385;28;20660;-71
2022/01/15 07:26:04;;;;;;;19.55;12.23;;;;;;;2.97;66.29;95772.31;5008364;28;20042;-72
2022/01/15 07:28:30;;;;;;;22.10;12.88;;;;;;;2.93;66.64;95771.50;5008242;28;20037;-69
2022/01/15 07:30:56;;;;;;;22.50;12.50;;;;;;;2.76;66.46;95746.41;5007974;28;20083;-69
2022/01/15 07:33:22;;;;;;;21.33;12.27;;;;;;;3.05;66.45;95788.28;5007132;28;20729;-66
2022/01/15 07:35:47;;;;;;;19.67;11.65;;;;;;;2.98;66.16;95776.53;5007980;28;20041;-71
2022/01/15 07:38:14;;;;;;;18.17;11.80;;;;;;;3.03;66.28;95795.09;5011216;28;20128;-69
2022/01/15 07:40:40;;;;;;;21.38;12.95;;;;;;;3.17;65.61;95773.59;5011146;28;20018;-74
2022/01/15 07:43:06;;;;;;;19.52;9.82;;;;;;;3.28;65.37;95786.91;5010795;28;20100;-70
2022/01/15 07:45:32;;;;;;;20.95;11.50;;;;;;;3.52;65.05;95780.44;5010667;28;20091;-71
2022/01/15 07:47:57;;;;;;;21.25;11.65;;;;;;;3.62;64.24;95773.41;5011079;28;20433;-71
2022/01/15 07:50:24;;;;;;;19.08;12.32;;;;;;;3.78;63.73;95766.25;5011040;28;20033;-71
2022/01/15 07:52:54;;;;;;;19.10;10.98;;;;;;;3.97;62.92;95797.25;5009335;28;20030;-72
2022/01/15 07:55:20;;;;;;;19.73;13.30;;;;;;;4.07;62.96;95791.03;5010657;28;20293;-69
2022/01/15 07:57:46;;;;;;;18.67;10.93;;;;;;;3.88;63.00;95765.13;5010475;28;20435;-74
2022/01/15 08:00:13;;;;;;;20.98;14.27;;;;;;;4.26;61.94;95790.56;5011229;28;20030;-70
2022/01/15 08:02:39;;;;;;;17.58;12.13;;;;;;;4.51;61.00;95790.75;5011402;28;20034;-70
2022/01/15 08:05:05;;;;;;;20.42;12.27;;;;;;;4.42;60.76;95799.50;5011391;28;20022;-72
2022/01/15 08:07:31;;;;;;;19.80;12.93;;;;;;;4.40;60.99;95796.97;5011080;28;20037;-72
2022/01/15 08:09:56;;;;;;;21.10;12.90;;;;;;;4.42;60.79;95804.59;5010849;28;20022;-65
2022/01/15 08:12:22;;;;;;;16.75;10.52;;;;;;;4.23;60.79;95777.00;5010929;28;20416;-76
2022/01/15 08:14:49;;;;;;;17.95;12.68;;;;;;;4.43;60.56;95816.50;5011187;28;20121;-74
2022/01/15 08:17:16;;;;;;;21.63;13.13;;;;;;;4.50;61.24;95818.00;5010801;28;20116;-73
2022/01/15 08:19:41;;;;;;;17.33;10.43;;;;;;;4.50;59.89;95832.50;5010724;28;20018;-73
2022/01/15 08:22:07;;;;;;;21.25;13.10;;;;;;;4.41;59.73;95836.97;5009955;28;20026;-77
2022/01/15 08:24:33;;;;;;;18.63;12.15;;;;;;;4.42;60.08;95830.16;5010578;28;20030;-74
2022/01/15 08:26:58;;;;;;;19.52;12.85;;;;;;;4.28;60.38;95822.84;5010440;28;20393;-75
2022/01/15 08:29:24;;;;;;;21.65;12.38;;;;;;;4.42;59.75;95833.53;5010385;28;20068;-77
2022/01/15 08:31:49;;;;;;;19.73;11.40;;;;;;;4.27;58.92;95784.59;5010902;28;20096;-77
2022/01/15 08:34:15;;;;;;;20.30;12.60;;;;;;;4.58;59.32;95823.75;5010008;28;20030;-76
2022/01/15 08:36:40;;;;;;;19.95;13.02;;;;;;;4.51;59.52;95835.03;5010557;28;20022;-73
2022/01/15 08:39:08;;;;;;;20.27;12.45;;;;;;;4.77;59.27;95836.03;5010787;28;20100;-75
2022/01/15 08:41:33;;;;;;;22.48;13.50;;;;;;;4.74;59.11;95829.31;5010675;28;20458;-77
2022/01/15 08:43:59;;;;;;;23.90;12.88;;;;;;;4.72;58.88;95855.75;5011085;28;20030;-75
2022/01/15 08:46:24;;;;;;;21.02;12.75;;;;;;;4.62;59.08;95850.06;5010244;28;20022;-74
2022/01/15 08:48:50;;;;;;;20.15;13.23;;;;;;;4.72;58.59;95874.50;5008808;28;20095;-75
2022/01/15 08:51:15;;;;;;;19.05;13.35;;;;;;;4.94;57.89;95879.03;5010819;28;20460;-73
2022/01/15 08:53:41;;;;;;;19.92;13.95;;;;;;;5.19;57.59;95874.06;5010890;28;20018;-73
2022/01/15 08:56:07;;;;;;;17.40;11.75;;;;;;;5.08;56.83;95842.84;5010941;28;20036;-73
2022/01/15 08:58:33;;;;;;;23.65;14.75;;;;;;;5.94;54.99;95876.16;5008721;28;20147;-75
2022/01/15 09:00:58;;;;;;;22.27;13.38;;;;;;;6.10;54.20;95880.81;5010506;28;20066;-76
2022/01/15 09:03:24;;;;;;;21.95;13.77;;;;;;;6.60;52.81;95839.88;5010810;28;20029;-75
2022/01/15 09:05:51;;;;;;;19.52;12.10;;;;;;;7.14;51.14;95866.22;5010535;28;20053;-74
2022/01/15 09:08:18;;;;;;;16.52;10.20;;;;;;;8.36;47.07;95865.00;5008283;28;20083;-70
2022/01/15 09:10:44;;;;;;;21.48;13.73;;;;;;;10.68;42.69;95847.72;5009524;28;20025;-72
2022/01/15 09:13:10;;;;;;;22.27;14.23;;;;;;;13.20;36.62;95845.97;5009587;28;20022;-71
2022/01/15 09:15:36;;;;;;;19.70;12.70;;;;;;;14.02;34.19;95803.81;5009630;28;20060;-74
2022/01/15 09:18:02;;;;;;;18.35;13.35;;;;;;;14.34;33.60;95859.66;5009562;28;20087;-73
2022/01/15 09:20:28;;;;;;;18.42;12.82;;;;;;;12.60;35.68;95844.31;5009346;28;20505;-72
2022/01/15 09:22:54;;;;;;;16.95;12.23;;;;;;;11.81;37.43;95873.69;5009428;28;20017;-74
2022/01/15 09:25:19;;;;;;;18.25;12.15;;;;;;;15.38;31.15;95866.69;5009498;28;20118;-75
2022/01/15 09:30:29;;;;;;;14.60;9.90;;;;;;;15.63;29.46;95859.78;5009796;28;20036;-75
2022/01/15 09:32:56;;;;;;;16.13;11.50;;;;;;;17.59;27.13;95816.75;5007880;28;20042;-73
2022/01/15 09:35:24;;;;;;;15.48;10.60;;;;;;;17.77;26.43;95849.25;5008123;28;20061;-76
2022/01/15 09:37:51;;;;;;;16.40;10.98;;;;;;;17.34;27.11;95829.09;5009420;28;20029;-72
2022/01/15 09:40:18;;;;;;;14.65;11.00;;;;;;;16.41;27.62;95824.75;5009367;28;20032;-79
2022/01/15 09:42:44;;;;;;;14.40;11.25;;;;;;;17.07;26.48;95780.78;5009295;28;20076;-71
2022/01/15 09:45:11;;;;;;;11.77;8.63;;;;;;;14.65;30.11;95813.56;5008646;28;20029;-74
2022/01/15 09:47:38;;;;;;;12.30;8.88;;;;;;;13.67;31.78;95836.22;5009054;28;20422;-68
2022/01/15 09:50:06;;;;;;;14.35;10.20;;;;;;;14.99;30.01;95815.69;5009514;28;20073;-70
2022/01/15 09:52:33;;;;;;;15.02;10.88;;;;;;;15.70;28.93;95792.56;5009118;28;20053;-70
2022/01/15 09:55:04;;;;;;;15.13;10.00;;;;;;;15.36;28.79;95790.56;5007848;28;20038;-74
2022/01/15 09:57:29;;;;;;;12.45;8.77;;;;;;;12.86;31.98;95790.22;5008068;28;20068;-75
2022/01/15 09:59:55;;;;;;;13.90;9.20;;;;;;;11.62;34.83;95816.19;5009158;28;20124;-71
2022/01/15 10:02:20;;;;;;;12.30;7.82;;;;;;;13.21;32.26;95839.03;5009094;28;20026;-74
2022/01/15 10:04:46;;;;;;;16.10;10.10;;;;;;;10.79;36.33;95852.31;5009204;28;20034;-74
2022/01/15 10:07:17;;;;;;;14.82;8.63;;;;;;;9.34;39.67;95859.97;5009124;28;20121;-69
2022/01/15 10:09:44;;;;;;;15.85;10.90;;;;;;;7.50;44.37;95870.91;5008697;28;20061;-68
2022/01/15 10:12:11;;;;;;;15.77;10.85;;;;;;;6.73;46.23;95825.75;5008689;28;20473;-69
2022/01/15 10:14:41;;;;;;;16.10;10.38;;;;;;;6.70;46.44;95855.78;5007889;28;20427;-71
2022/01/15 10:17:25;;;;;;;21.08;12.20;;;;;;;6.29;48.48;95853.72;5008785;28;20060;-73
2022/01/15 10:19:51;;;;;;;15.10;8.32;;;;;;;6.50;47.27;95851.34;5008909;28;20405;-75
2022/01/15 10:22:20;;;;;;;12.60;8.43;;;;;;;6.92;46.79;95866.97;5008180;28;20454;-78
2022/01/15 10:25:01;;;;;;;16.27;10.27;;;;;;;6.06;48.87;95845.06;5008728;28;20038;-73
2022/01/15 10:27:28;;;;;;;16.75;11.32;;;;;;;6.14;48.91;95859.34;5008360;28;20046;-74
2022/01/15 10:30:13;;;;;;;18.42;12.63;;;;;;;6.12;49.02;95838.91;5008887;28;20042;-75
2022/01/15 10:32:50;;;;;;;15.52;8.02;;;;;;;5.71;50.24;95828.22;5007912;28;20041;-73
2022/01/15 10:35:17;;;;;;;14.70;11.18;;;;;;;5.99;49.93;95843.59;5008834;28;20053;-75
2022/01/15 10:37:49;;;;;;;18.77;11.18;;;;;;;8.09;46.20;95843.81;5008611;28;20061;-73
2022/01/15 10:40:15;;;;;;;17.45;9.90;;;;;;;11.75;37.12;95820.59;5008552;28;20021;-75
2022/01/15 10:42:41;;;;;;;15.38;10.05;;;;;;;13.95;32.42;95817.22;5008462;28;20025;-77
2022/01/15 10:45:09;;;;;;;17.10;11.15;;;;;;;16.22;28.95;95795.84;5008307;28;20022;-74
2022/01/15 10:47:42;;;;;;;15.50;10.40;;;;;;;17.89;26.00;95802.28;5009678;28;20631;-77
2022/01/15 10:50:09;;;;;;;13.13;9.82;;;;;;;18.08;25.57;95802.47;5009190;28;20103;-75
2022/01/15 10:52:35;;;;;;;15.30;10.35;;;;;;;17.32;25.85;95812.75;5008734;28;20045;-78
2022/01/15 10:55:12;;;;;;;17.45;10.25;;;;;;;15.41;28.41;95762.50;5007840;28;20026;-77
2022/01/15 10:57:43;;;;;;;13.98;10.20;;;;;;;17.22;26.19;95814.44;5007586;28;20614;-75
2022/01/15 11:00:17;;;;;;;16.17;10.40;;;;;;;13.77;30.83;95813.16;5008089;28;20052;-72
2022/01/15 11:02:46;;;;;;;14.10;9.38;;;;;;;12.43;32.79;95823.75;5008408;28;20111;-72
2022/01/15 11:05:29;;;;;;;16.23;10.00;;;;;;;12.74;32.50;95816.81;5007026;28;20037;-79
2022/01/15 11:08:06;;;;;;;12.35;8.55;;;;;;;12.60;33.51;95817.63;5008710;28;20061;-72
2022/01/15 11:11:03;;;;;;;13.73;9.68;;;;;;;12.72;32.92;95819.47;5007509;28;20057;-71
2022/01/15 11:13:42;;;;;;;14.80;9.13;;;;;;;9.51;37.29;95827.50;4970046;28;20115;-76
2022/01/15 11:16:10;;;;;;;15.48;9.80;;;;;;;9.87;38.07;95829.25;4970085;28;20031;-75
2022/01/15 11:18:38;;;;;;;13.00;8.55;;;;;;;13.29;31.86;95740.97;4969961;28;20186;-79
2022/01/15 11:21:06;;;;;;;16.63;9.40;;;;;;;11.26;34.69;95830.16;4953125;28;20034;-70
2022/01/15 11:23:33;;;;;;;15.65;10.48;;;;;;;13.06;33.14;95817.47;4969851;28;20049;-74
2022/01/15 11:26:01;;;;;;;14.02;10.00;;;;;;;16.52;26.78;95788.34;4969761;28;20564;-71
2022/01/15 11:28:30;;;;;;;14.88;9.70;;;;;;;15.06;28.21;95750.19;4969904;28;20039;-73
2022/01/15 11:31:07;;;;;;;13.93;9.35;;;;;;;16.51;27.01;95796.25;4970875;28;20050;-78
2022/01/15 11:33:35;;;;;;;15.63;10.45;;;;;;;19.38;23.47;95765.63;4969935;28;20031;-74
2022/01/15 11:36:01;;;;;;;15.00;9.25;;;;;;;20.03;21.92;95792.25;4970643;28;20047;-77
2022/01/15 11:38:50;;;;;;;13.48;9.48;;;;;;;16.82;25.11;95804.38;4969828;28;20524;-75
2022/01/15 11:41:28;;;;;;;13.77;10.00;;;;;;;17.22;25.24;95793.56;4969727;28;20141;-75
2022/01/15 11:43:54;;;;;;;15.02;10.20;;;;;;;18.11;23.63;95757.84;4970047;28;20070;-77
2022/01/15 11:46:41;;;;;;;13.57;9.52;;;;;;;18.84;22.88;95764.97;4969118;28;20031;-73